sensor_id;sensor_type;location;lat;lon;timestamp;P1;durP1;ratioP1;P2;durP2;ratioP2
49858;SDS011;35756;52.346;13.622;2023-04-24T00:00:49;8.25;;;5.63;;
49858;SDS011;35756;52.346;13.622;2023-04-24T00:03:15;7.70;;;5.45;;
49858;SDS011;35756;52.346;13.622;2023-04-24T00:05:41;8.30;;;6.07;;
49858;SDS011;35756;52.346;13.622;2023-04-24T00:08:06;8.15;;;6.07;;
49858;SDS011;35756;52.346;13.622;2023-04-24T00:10:32;8.82;;;6.05;;
49858;SDS011;35756;52.346;13.622;2023-04-24T00:12:57;8.63;;;6.28;;
49858;SDS011;35756;52.346;13.622;2023-04-24T00:15:22;9.85;;;6.18;;
49858;SDS011;35756;52.346;13.622;2023-04-24T00:17:48;10.35;;;6.47;;
49858;SDS011;35756;52.346;13.622;2023-04-24T00:20:13;23.20;;;6.30;;
49858;SDS011;35756;52.346;13.622;2023-04-24T00:22:39;12.20;;;6.38;;
49858;SDS011;35756;52.346;13.622;2023-04-24T00:25:05;10.07;;;5.97;;
49858;SDS011;35756;52.346;13.622;2023-04-24T00:27:30;10.20;;;5.97;;
49858;SDS011;35756;52.346;13.622;2023-04-24T00:29:56;8.05;;;5.80;;
49858;SDS011;35756;52.346;13.622;2023-04-24T00:32:21;8.18;;;5.55;;
49858;SDS011;35756;52.346;13.622;2023-04-24T00:34:46;8.25;;;5.88;;
49858;SDS011;35756;52.346;13.622;2023-04-24T00:37:12;9.63;;;6.75;;
49858;SDS011;35756;52.346;13.622;2023-04-24T00:39:37;9.68;;;5.60;;
49858;SDS011;35756;52.346;13.622;2023-04-24T00:42:02;7.97;;;5.63;;
49858;SDS011;35756;52.346;13.622;2023-04-24T00:44:27;9.50;;;6.18;;
49858;SDS011;35756;52.346;13.622;2023-04-24T00:46:53;8.35;;;5.70;;
49858;SDS011;35756;52.346;13.622;2023-04-24T00:49:19;10.73;;;5.57;;
49858;SDS011;35756;52.346;13.622;2023-04-24T00:51:45;9.68;;;6.72;;
49858;SDS011;35756;52.346;13.622;2023-04-24T00:54:12;8.65;;;6.20;;
49858;SDS011;35756;52.346;13.622;2023-04-24T00:56:37;8.23;;;5.95;;
49858;SDS011;35756;52.346;13.622;2023-04-24T00:59:03;7.85;;;5.50;;
49858;SDS011;35756;52.346;13.622;2023-04-24T01:01:29;9.00;;;6.47;;
49858;SDS011;35756;52.346;13.622;2023-04-24T01:03:55;9.15;;;6.75;;
49858;SDS011;35756;52.346;13.622;2023-04-24T01:06:20;9.65;;;6.45;;
49858;SDS011;35756;52.346;13.622;2023-04-24T01:08:46;10.38;;;6.78;;
49858;SDS011;35756;52.346;13.622;2023-04-24T01:11:12;12.40;;;6.75;;
49858;SDS011;35756;52.346;13.622;2023-04-24T01:13:37;9.70;;;6.25;;
49858;SDS011;35756;52.346;13.622;2023-04-24T01:16:03;10.05;;;7.13;;
49858;SDS011;35756;52.346;13.622;2023-04-24T01:18:28;10.88;;;5.95;;
49858;SDS011;35756;52.346;13.622;2023-04-24T01:20:54;11.73;;;6.28;;
49858;SDS011;35756;52.346;13.622;2023-04-24T01:23:22;9.27;;;6.38;;
49858;SDS011;35756;52.346;13.622;2023-04-24T01:25:47;10.88;;;7.55;;
49858;SDS011;35756;52.346;13.622;2023-04-24T01:28:14;9.35;;;6.65;;
49858;SDS011;35756;52.346;13.622;2023-04-24T01:30:39;11.35;;;7.15;;
49858;SDS011;35756;52.346;13.622;2023-04-24T01:33:05;9.48;;;7.47;;
49858;SDS011;35756;52.346;13.622;2023-04-24T01:35:30;8.85;;;6.70;;
49858;SDS011;35756;52.346;13.622;2023-04-24T01:37:56;9.93;;;6.80;;
49858;SDS011;35756;52.346;13.622;2023-04-24T01:40:21;9.20;;;6.65;;
49858;SDS011;35756;52.346;13.622;2023-04-24T01:42:46;11.65;;;6.82;;
49858;SDS011;35756;52.346;13.622;2023-04-24T01:45:12;9.02;;;6.43;;
49858;SDS011;35756;52.346;13.622;2023-04-24T01:47:40;9.50;;;6.68;;
49858;SDS011;35756;52.346;13.622;2023-04-24T01:50:06;10.77;;;6.50;;
49858;SDS011;35756;52.346;13.622;2023-04-24T01:52:32;9.75;;;6.65;;
49858;SDS011;35756;52.346;13.622;2023-04-24T01:55:01;8.57;;;5.90;;
49858;SDS011;35756;52.346;13.622;2023-04-24T01:57:28;9.25;;;6.40;;
49858;SDS011;35756;52.346;13.622;2023-04-24T01:59:55;10.07;;;6.00;;
49858;SDS011;35756;52.346;13.622;2023-04-24T02:02:20;10.00;;;6.72;;
49858;SDS011;35756;52.346;13.622;2023-04-24T02:04:46;9.75;;;6.55;;
49858;SDS011;35756;52.346;13.622;2023-04-24T02:07:11;12.35;;;6.95;;
49858;SDS011;35756;52.346;13.622;2023-04-24T02:09:37;8.88;;;6.40;;
49858;SDS011;35756;52.346;13.622;2023-04-24T02:12:02;9.23;;;7.13;;
49858;SDS011;35756;52.346;13.622;2023-04-24T02:14:27;10.55;;;7.25;;
49858;SDS011;35756;52.346;13.622;2023-04-24T02:16:53;9.60;;;7.15;;
49858;SDS011;35756;52.346;13.622;2023-04-24T02:19:18;9.60;;;6.45;;
49858;SDS011;35756;52.346;13.622;2023-04-24T02:21:43;9.48;;;6.55;;
49858;SDS011;35756;52.346;13.622;2023-04-24T02:24:09;9.50;;;6.70;;
49858;SDS011;35756;52.346;13.622;2023-04-24T02:26:34;10.05;;;7.03;;
49858;SDS011;35756;52.346;13.622;2023-04-24T02:28:59;11.73;;;7.32;;
49858;SDS011;35756;52.346;13.622;2023-04-24T02:31:24;11.23;;;7.03;;
49858;SDS011;35756;52.346;13.622;2023-04-24T02:33:50;9.23;;;6.63;;
49858;SDS011;35756;52.346;13.622;2023-04-24T02:36:15;11.38;;;7.20;;
49858;SDS011;35756;52.346;13.622;2023-04-24T02:38:40;9.85;;;7.10;;
49858;SDS011;35756;52.346;13.622;2023-04-24T02:41:06;9.65;;;6.70;;
49858;SDS011;35756;52.346;13.622;2023-04-24T02:43:32;9.13;;;6.35;;
49858;SDS011;35756;52.346;13.622;2023-04-24T02:45:57;10.05;;;6.93;;
49858;SDS011;35756;52.346;13.622;2023-04-24T02:48:23;8.82;;;6.75;;
49858;SDS011;35756;52.346;13.622;2023-04-24T02:50:48;10.70;;;7.38;;
49858;SDS011;35756;52.346;13.622;2023-04-24T02:53:13;9.63;;;7.18;;
49858;SDS011;35756;52.346;13.622;2023-04-24T02:55:39;11.38;;;7.63;;
49858;SDS011;35756;52.346;13.622;2023-04-24T02:58:04;10.95;;;6.75;;
49858;SDS011;35756;52.346;13.622;2023-04-24T03:00:30;12.10;;;7.80;;
49858;SDS011;35756;52.346;13.622;2023-04-24T03:02:56;9.57;;;6.93;;
49858;SDS011;35756;52.346;13.622;2023-04-24T03:05:21;9.82;;;7.05;;
49858;SDS011;35756;52.346;13.622;2023-04-24T03:07:46;9.60;;;6.85;;
49858;SDS011;35756;52.346;13.622;2023-04-24T03:10:12;10.20;;;6.47;;
49858;SDS011;35756;52.346;13.622;2023-04-24T03:12:37;9.55;;;6.63;;
49858;SDS011;35756;52.346;13.622;2023-04-24T03:15:02;11.88;;;7.25;;
49858;SDS011;35756;52.346;13.622;2023-04-24T03:17:28;10.10;;;6.82;;
49858;SDS011;35756;52.346;13.622;2023-04-24T03:19:53;10.95;;;7.40;;
49858;SDS011;35756;52.346;13.622;2023-04-24T03:22:18;10.27;;;6.93;;
49858;SDS011;35756;52.346;13.622;2023-04-24T03:24:43;9.60;;;7.00;;
49858;SDS011;35756;52.346;13.622;2023-04-24T03:27:09;8.82;;;6.53;;
49858;SDS011;35756;52.346;13.622;2023-04-24T03:29:34;9.52;;;7.03;;
49858;SDS011;35756;52.346;13.622;2023-04-24T03:31:59;9.75;;;7.13;;
49858;SDS011;35756;52.346;13.622;2023-04-24T03:34:25;11.38;;;6.47;;
49858;SDS011;35756;52.346;13.622;2023-04-24T03:36:50;10.27;;;6.55;;
49858;SDS011;35756;52.346;13.622;2023-04-24T03:39:15;10.88;;;6.78;;
49858;SDS011;35756;52.346;13.622;2023-04-24T03:41:41;9.30;;;6.35;;
49858;SDS011;35756;52.346;13.622;2023-04-24T03:44:06;12.25;;;6.93;;
49858;SDS011;35756;52.346;13.622;2023-04-24T03:46:31;10.57;;;6.78;;
49858;SDS011;35756;52.346;13.622;2023-04-24T03:48:57;8.40;;;6.18;;
49858;SDS011;35756;52.346;13.622;2023-04-24T03:51:22;10.63;;;7.03;;
49858;SDS011;35756;52.346;13.622;2023-04-24T03:53:47;10.32;;;7.07;;
49858;SDS011;35756;52.346;13.622;2023-04-24T03:56:13;10.63;;;7.00;;
49858;SDS011;35756;52.346;13.622;2023-04-24T03:58:38;9.88;;;6.47;;
49858;SDS011;35756;52.346;13.622;2023-04-24T04:01:03;10.05;;;7.35;;
49858;SDS011;35756;52.346;13.622;2023-04-24T04:03:29;10.05;;;6.90;;
49858;SDS011;35756;52.346;13.622;2023-04-24T04:05:54;11.35;;;7.10;;
49858;SDS011;35756;52.346;13.622;2023-04-24T04:08:19;9.90;;;7.00;;
49858;SDS011;35756;52.346;13.622;2023-04-24T04:10:45;9.35;;;6.70;;
49858;SDS011;35756;52.346;13.622;2023-04-24T04:13:10;11.25;;;7.38;;
49858;SDS011;35756;52.346;13.622;2023-04-24T04:15:35;9.73;;;6.72;;
49858;SDS011;35756;52.346;13.622;2023-04-24T04:18:00;13.98;;;7.72;;
49858;SDS011;35756;52.346;13.622;2023-04-24T04:20:26;8.50;;;6.18;;
49858;SDS011;35756;52.346;13.622;2023-04-24T04:22:51;10.80;;;6.90;;
49858;SDS011;35756;52.346;13.622;2023-04-24T04:25:16;11.07;;;7.32;;
49858;SDS011;35756;52.346;13.622;2023-04-24T04:27:44;9.68;;;6.50;;
49858;SDS011;35756;52.346;13.622;2023-04-24T04:30:09;10.98;;;6.90;;
49858;SDS011;35756;52.346;13.622;2023-04-24T04:32:35;10.00;;;6.80;;
49858;SDS011;35756;52.346;13.622;2023-04-24T04:35:00;13.63;;;7.00;;
49858;SDS011;35756;52.346;13.622;2023-04-24T04:37:29;9.20;;;7.25;;
49858;SDS011;35756;52.346;13.622;2023-04-24T04:39:54;11.25;;;7.15;;
49858;SDS011;35756;52.346;13.622;2023-04-24T04:42:20;9.23;;;6.90;;
49858;SDS011;35756;52.346;13.622;2023-04-24T04:44:45;9.95;;;7.22;;
49858;SDS011;35756;52.346;13.622;2023-04-24T04:47:11;9.05;;;6.68;;
49858;SDS011;35756;52.346;13.622;2023-04-24T04:49:37;11.05;;;6.68;;
49858;SDS011;35756;52.346;13.622;2023-04-24T04:52:03;12.82;;;6.78;;
49858;SDS011;35756;52.346;13.622;2023-04-24T04:54:28;7.90;;;5.80;;
49858;SDS011;35756;52.346;13.622;2023-04-24T04:56:54;7.55;;;5.40;;
49858;SDS011;35756;52.346;13.622;2023-04-24T04:59:19;8.68;;;6.20;;
49858;SDS011;35756;52.346;13.622;2023-04-24T05:01:45;8.63;;;6.10;;
49858;SDS011;35756;52.346;13.622;2023-04-24T05:04:10;7.93;;;5.78;;
49858;SDS011;35756;52.346;13.622;2023-04-24T05:06:35;6.85;;;5.15;;
49858;SDS011;35756;52.346;13.622;2023-04-24T05:09:01;8.48;;;5.60;;
49858;SDS011;35756;52.346;13.622;2023-04-24T05:11:26;7.43;;;5.18;;
49858;SDS011;35756;52.346;13.622;2023-04-24T05:13:52;6.18;;;4.85;;
49858;SDS011;35756;52.346;13.622;2023-04-24T05:16:17;8.05;;;5.10;;
49858;SDS011;35756;52.346;13.622;2023-04-24T05:18:42;7.22;;;4.85;;
49858;SDS011;35756;52.346;13.622;2023-04-24T05:21:08;9.02;;;5.45;;
49858;SDS011;35756;52.346;13.622;2023-04-24T05:23:33;8.38;;;5.00;;
49858;SDS011;35756;52.346;13.622;2023-04-24T05:25:58;6.30;;;4.40;;
49858;SDS011;35756;52.346;13.622;2023-04-24T05:28:23;8.48;;;4.97;;
49858;SDS011;35756;52.346;13.622;2023-04-24T05:30:53;8.02;;;5.18;;
49858;SDS011;35756;52.346;13.622;2023-04-24T05:33:18;6.78;;;4.15;;
49858;SDS011;35756;52.346;13.622;2023-04-24T05:35:43;6.55;;;4.22;;
49858;SDS011;35756;52.346;13.622;2023-04-24T05:38:11;5.50;;;3.85;;
49858;SDS011;35756;52.346;13.622;2023-04-24T05:40:37;8.13;;;4.68;;
49858;SDS011;35756;52.346;13.622;2023-04-24T05:43:02;5.10;;;3.72;;
49858;SDS011;35756;52.346;13.622;2023-04-24T05:45:28;7.25;;;4.68;;
49858;SDS011;35756;52.346;13.622;2023-04-24T05:47:53;7.57;;;5.95;;
49858;SDS011;35756;52.346;13.622;2023-04-24T05:50:19;6.63;;;5.15;;
49858;SDS011;35756;52.346;13.622;2023-04-24T05:52:44;3.97;;;3.13;;
49858;SDS011;35756;52.346;13.622;2023-04-24T05:55:10;112.25;;;107.13;;
49858;SDS011;35756;52.346;13.622;2023-04-24T05:57:35;497.17;;;471.98;;
49858;SDS011;35756;52.346;13.622;2023-04-24T06:00:00;1069.95;;;984.45;;
49858;SDS011;35756;52.346;13.622;2023-04-24T06:02:25;1086.20;;;992.17;;
49858;SDS011;35756;52.346;13.622;2023-04-24T06:04:52;1143.28;;;999.90;;
49858;SDS011;35756;52.346;13.622;2023-04-24T06:07:17;1112.70;;;999.90;;
49858;SDS011;35756;52.346;13.622;2023-04-24T06:09:42;1132.75;;;999.90;;
49858;SDS011;35756;52.346;13.622;2023-04-24T06:12:08;1102.35;;;999.90;;
49858;SDS011;35756;52.346;13.622;2023-04-24T06:14:33;1163.43;;;999.90;;
49858;SDS011;35756;52.346;13.622;2023-04-24T06:16:59;1195.78;;;999.90;;
49858;SDS011;35756;52.346;13.622;2023-04-24T06:19:24;1136.60;;;999.90;;
49858;SDS011;35756;52.346;13.622;2023-04-24T06:21:49;1123.55;;;999.90;;
49858;SDS011;35756;52.346;13.622;2023-04-24T06:24:15;1163.13;;;999.90;;
49858;SDS011;35756;52.346;13.622;2023-04-24T06:26:43;1115.63;;;999.90;;
49858;SDS011;35756;52.346;13.622;2023-04-24T06:29:08;1081.93;;;988.40;;
49858;SDS011;35756;52.346;13.622;2023-04-24T06:31:33;985.17;;;913.65;;
49858;SDS011;35756;52.346;13.622;2023-04-24T06:34:01;923.33;;;857.15;;
49858;SDS011;35756;52.346;13.622;2023-04-24T06:36:27;1003.42;;;930.20;;
49858;SDS011;35756;52.346;13.622;2023-04-24T06:38:53;1052.90;;;968.17;;
49858;SDS011;35756;52.346;13.622;2023-04-24T06:41:18;1029.20;;;948.33;;
49858;SDS011;35756;52.346;13.622;2023-04-24T06:43:44;926.22;;;860.83;;
49858;SDS011;35756;52.346;13.622;2023-04-24T06:46:09;1128.90;;;999.90;;
49858;SDS011;35756;52.346;13.622;2023-04-24T06:48:35;1133.47;;;999.90;;
49858;SDS011;35756;52.346;13.622;2023-04-24T06:51:00;1129.05;;;999.90;;
49858;SDS011;35756;52.346;13.622;2023-04-24T06:53:25;714.30;;;668.58;;
49858;SDS011;35756;52.346;13.622;2023-04-24T06:55:51;813.45;;;754.17;;
49858;SDS011;35756;52.346;13.622;2023-04-24T06:58:16;1216.85;;;999.90;;
49858;SDS011;35756;52.346;13.622;2023-04-24T07:00:41;1823.57;;;999.90;;
49858;SDS011;35756;52.346;13.622;2023-04-24T07:03:06;1778.95;;;999.90;;
49858;SDS011;35756;52.346;13.622;2023-04-24T07:05:32;1999.90;;;999.90;;
49858;SDS011;35756;52.346;13.622;2023-04-24T07:07:59;1821.60;;;999.90;;
49858;SDS011;35756;52.346;13.622;2023-04-24T07:10:24;1844.72;;;999.90;;
49858;SDS011;35756;52.346;13.622;2023-04-24T07:12:52;1999.90;;;999.90;;
49858;SDS011;35756;52.346;13.622;2023-04-24T07:15:17;1921.82;;;999.90;;
49858;SDS011;35756;52.346;13.622;2023-04-24T07:17:42;1980.72;;;999.90;;
49858;SDS011;35756;52.346;13.622;2023-04-24T07:20:09;1921.80;;;999.90;;
49858;SDS011;35756;52.346;13.622;2023-04-24T07:22:35;1932.47;;;999.90;;
49858;SDS011;35756;52.346;13.622;2023-04-24T07:25:00;1948.18;;;999.90;;
49858;SDS011;35756;52.346;13.622;2023-04-24T07:27:26;1999.90;;;999.90;;
49858;SDS011;35756;52.346;13.622;2023-04-24T07:29:51;1775.30;;;999.90;;
49858;SDS011;35756;52.346;13.622;2023-04-24T07:32:17;1922.60;;;999.90;;
49858;SDS011;35756;52.346;13.622;2023-04-24T07:34:42;1999.90;;;969.05;;
49858;SDS011;35756;52.346;13.622;2023-04-24T07:37:07;1773.35;;;999.90;;
49858;SDS011;35756;52.346;13.622;2023-04-24T07:39:33;1901.00;;;999.90;;
49858;SDS011;35756;52.346;13.622;2023-04-24T07:41:58;1925.00;;;999.90;;
49858;SDS011;35756;52.346;13.622;2023-04-24T07:44:24;1999.53;;;999.90;;
49858;SDS011;35756;52.346;13.622;2023-04-24T07:46:49;1999.90;;;999.90;;
49858;SDS011;35756;52.346;13.622;2023-04-24T07:49:14;1724.10;;;652.33;;
49858;SDS011;35756;52.346;13.622;2023-04-24T07:51:40;1341.20;;;464.48;;
49858;SDS011;35756;52.346;13.622;2023-04-24T07:54:06;1999.90;;;901.50;;
49858;SDS011;35756;52.346;13.622;2023-04-24T07:56:31;1824.75;;;765.08;;
49858;SDS011;35756;52.346;13.622;2023-04-24T07:58:57;1881.97;;;999.90;;
49858;SDS011;35756;52.346;13.622;2023-04-24T08:01:22;1845.05;;;999.90;;
49858;SDS011;35756;52.346;13.622;2023-04-24T08:03:47;1934.53;;;999.90;;
49858;SDS011;35756;52.346;13.622;2023-04-24T08:06:12;1797.80;;;999.90;;
49858;SDS011;35756;52.346;13.622;2023-04-24T08:08:38;1913.65;;;999.90;;
49858;SDS011;35756;52.346;13.622;2023-04-24T08:11:03;1764.95;;;999.90;;
49858;SDS011;35756;52.346;13.622;2023-04-24T08:13:29;1885.47;;;999.90;;
49858;SDS011;35756;52.346;13.622;2023-04-24T08:15:54;1727.85;;;999.90;;
49858;SDS011;35756;52.346;13.622;2023-04-24T08:18:19;1999.90;;;997.40;;
49858;SDS011;35756;52.346;13.622;2023-04-24T08:20:45;1826.65;;;999.90;;
49858;SDS011;35756;52.346;13.622;2023-04-24T08:23:10;1735.68;;;999.90;;
49858;SDS011;35756;52.346;13.622;2023-04-24T08:25:36;1999.90;;;999.90;;
49858;SDS011;35756;52.346;13.622;2023-04-24T08:28:05;1386.57;;;473.63;;
49858;SDS011;35756;52.346;13.622;2023-04-24T08:30:32;1925.97;;;999.90;;
49858;SDS011;35756;52.346;13.622;2023-04-24T08:32:57;1398.35;;;459.85;;
49858;SDS011;35756;52.346;13.622;2023-04-24T08:35:22;1656.60;;;999.90;;
49858;SDS011;35756;52.346;13.622;2023-04-24T08:37:48;1755.82;;;693.78;;
49858;SDS011;35756;52.346;13.622;2023-04-24T08:40:14;1822.82;;;778.88;;
49858;SDS011;35756;52.346;13.622;2023-04-24T08:42:43;1465.65;;;474.95;;
49858;SDS011;35756;52.346;13.622;2023-04-24T08:45:09;1999.90;;;999.90;;
49858;SDS011;35756;52.346;13.622;2023-04-24T08:47:35;1687.78;;;643.03;;
49858;SDS011;35756;52.346;13.622;2023-04-24T08:50:02;1759.55;;;742.63;;
49858;SDS011;35756;52.346;13.622;2023-04-24T08:52:30;1999.90;;;999.90;;
49858;SDS011;35756;52.346;13.622;2023-04-24T08:55:02;1992.85;;;982.47;;
49858;SDS011;35756;52.346;13.622;2023-04-24T08:57:28;1999.90;;;999.90;;
49858;SDS011;35756;52.346;13.622;2023-04-24T08:59:54;1999.90;;;991.90;;
49858;SDS011;35756;52.346;13.622;2023-04-24T09:02:19;1712.47;;;999.90;;
49858;SDS011;35756;52.346;13.622;2023-04-24T09:04:45;1900.68;;;999.90;;
49858;SDS011;35756;52.346;13.622;2023-04-24T09:07:12;1763.20;;;999.90;;
49858;SDS011;35756;52.346;13.622;2023-04-24T09:09:37;1877.47;;;999.90;;
49858;SDS011;35756;52.346;13.622;2023-04-24T09:12:03;1649.88;;;999.90;;
49858;SDS011;35756;52.346;13.622;2023-04-24T09:14:28;1731.32;;;999.90;;
49858;SDS011;35756;52.346;13.622;2023-04-24T09:16:56;1664.32;;;999.90;;
49858;SDS011;35756;52.346;13.622;2023-04-24T09:19:21;1783.85;;;999.90;;
49858;SDS011;35756;52.346;13.622;2023-04-24T09:21:47;1854.00;;;999.90;;
49858;SDS011;35756;52.346;13.622;2023-04-24T09:24:19;1873.00;;;999.90;;
49858;SDS011;35756;52.346;13.622;2023-04-24T09:26:47;1834.53;;;999.90;;
49858;SDS011;35756;52.346;13.622;2023-04-24T09:29:16;1758.95;;;999.90;;
49858;SDS011;35756;52.346;13.622;2023-04-24T09:31:42;1620.97;;;999.90;;
49858;SDS011;35756;52.346;13.622;2023-04-24T09:34:07;1582.55;;;999.90;;
49858;SDS011;35756;52.346;13.622;2023-04-24T09:36:36;1776.82;;;999.90;;
49858;SDS011;35756;52.346;13.622;2023-04-24T09:39:03;1705.20;;;999.90;;
49858;SDS011;35756;52.346;13.622;2023-04-24T09:41:31;1683.03;;;999.90;;
49858;SDS011;35756;52.346;13.622;2023-04-24T09:43:57;1755.18;;;999.90;;
49858;SDS011;35756;52.346;13.622;2023-04-24T09:46:30;1868.65;;;999.90;;
49858;SDS011;35756;52.346;13.622;2023-04-24T09:48:56;1747.13;;;999.90;;
49858;SDS011;35756;52.346;13.622;2023-04-24T09:51:34;1823.95;;;999.90;;
49858;SDS011;35756;52.346;13.622;2023-04-24T09:54:04;1130.25;;;975.40;;
49858;SDS011;35756;52.346;13.622;2023-04-24T09:56:34;777.03;;;715.13;;
49858;SDS011;35756;52.346;13.622;2023-04-24T09:59:06;979.15;;;876.42;;
49858;SDS011;35756;52.346;13.622;2023-04-24T10:01:32;842.13;;;763.58;;
49858;SDS011;35756;52.346;13.622;2023-04-24T10:03:57;862.88;;;786.70;;
49858;SDS011;35756;52.346;13.622;2023-04-24T10:06:22;810.00;;;744.70;;
49858;SDS011;35756;52.346;13.622;2023-04-24T10:08:48;924.03;;;835.30;;
49858;SDS011;35756;52.346;13.622;2023-04-24T10:11:15;1124.97;;;955.08;;
49858;SDS011;35756;52.346;13.622;2023-04-24T10:13:41;691.22;;;642.97;;
49858;SDS011;35756;52.346;13.622;2023-04-24T10:16:06;718.38;;;667.08;;
49858;SDS011;35756;52.346;13.622;2023-04-24T10:18:32;756.58;;;701.72;;
49858;SDS011;35756;52.346;13.622;2023-04-24T10:20:57;762.72;;;703.33;;
49858;SDS011;35756;52.346;13.622;2023-04-24T10:23:25;1131.15;;;975.40;;
49858;SDS011;35756;52.346;13.622;2023-04-24T10:25:50;899.47;;;818.65;;
49858;SDS011;35756;52.346;13.622;2023-04-24T10:28:16;767.10;;;704.15;;
49858;SDS011;35756;52.346;13.622;2023-04-24T10:30:42;765.28;;;708.05;;
49858;SDS011;35756;52.346;13.622;2023-04-24T10:33:08;921.90;;;840.03;;
49858;SDS011;35756;52.346;13.622;2023-04-24T10:35:34;1801.28;;;999.90;;
49858;SDS011;35756;52.346;13.622;2023-04-24T10:38:03;1296.03;;;999.70;;
49858;SDS011;35756;52.346;13.622;2023-04-24T10:40:31;1767.10;;;999.90;;
49858;SDS011;35756;52.346;13.622;2023-04-24T10:42:58;1860.38;;;999.90;;
49858;SDS011;35756;52.346;13.622;2023-04-24T10:45:23;1847.10;;;999.90;;
49858;SDS011;35756;52.346;13.622;2023-04-24T10:47:53;1703.38;;;999.90;;
49858;SDS011;35756;52.346;13.622;2023-04-24T10:50:21;1698.40;;;999.90;;
49858;SDS011;35756;52.346;13.622;2023-04-24T10:52:46;1660.30;;;999.90;;
49858;SDS011;35756;52.346;13.622;2023-04-24T10:55:13;1708.45;;;999.90;;
49858;SDS011;35756;52.346;13.622;2023-04-24T10:57:40;1739.15;;;999.90;;
49858;SDS011;35756;52.346;13.622;2023-04-24T11:00:28;1999.90;;;999.90;;
49858;SDS011;35756;52.346;13.622;2023-04-24T11:02:53;1999.90;;;999.90;;
49858;SDS011;35756;52.346;13.622;2023-04-24T11:05:20;1838.35;;;999.90;;
49858;SDS011;35756;52.346;13.622;2023-04-24T11:10:38;1655.88;;;999.90;;
49858;SDS011;35756;52.346;13.622;2023-04-24T11:13:10;1999.90;;;921.92;;
49858;SDS011;35756;52.346;13.622;2023-04-24T11:15:35;1750.45;;;999.90;;
49858;SDS011;35756;52.346;13.622;2023-04-24T11:18:01;1999.90;;;999.90;;
49858;SDS011;35756;52.346;13.622;2023-04-24T11:20:26;1938.43;;;778.20;;
49858;SDS011;35756;52.346;13.622;2023-04-24T11:22:54;1107.13;;;327.08;;
49858;SDS011;35756;52.346;13.622;2023-04-24T11:25:22;1118.30;;;426.77;;
49858;SDS011;35756;52.346;13.622;2023-04-24T11:27:47;1228.53;;;377.45;;
49858;SDS011;35756;52.346;13.622;2023-04-24T11:30:16;1926.35;;;797.70;;
49858;SDS011;35756;52.346;13.622;2023-04-24T11:32:42;1341.78;;;441.33;;
49858;SDS011;35756;52.346;13.622;2023-04-24T11:37:48;1845.13;;;667.53;;
49858;SDS011;35756;52.346;13.622;2023-04-24T11:40:14;1921.43;;;807.85;;
49858;SDS011;35756;52.346;13.622;2023-04-24T11:42:41;1999.90;;;928.90;;
49858;SDS011;35756;52.346;13.622;2023-04-24T11:45:09;1999.90;;;906.20;;
49858;SDS011;35756;52.346;13.622;2023-04-24T11:47:38;1999.90;;;999.90;;
49858;SDS011;35756;52.346;13.622;2023-04-24T11:50:05;1616.15;;;999.90;;
49858;SDS011;35756;52.346;13.622;2023-04-24T11:52:33;1606.80;;;999.90;;
49858;SDS011;35756;52.346;13.622;2023-04-24T11:54:58;1710.32;;;999.90;;
49858;SDS011;35756;52.346;13.622;2023-04-24T11:57:24;1832.15;;;999.90;;
49858;SDS011;35756;52.346;13.622;2023-04-24T11:59:52;1998.10;;;983.80;;
49858;SDS011;35756;52.346;13.622;2023-04-24T12:02:24;1999.90;;;999.90;;
49858;SDS011;35756;52.346;13.622;2023-04-24T12:04:51;1999.90;;;902.25;;
49858;SDS011;35756;52.346;13.622;2023-04-24T12:07:16;1802.90;;;839.50;;
49858;SDS011;35756;52.346;13.622;2023-04-24T12:09:42;1999.90;;;901.22;;
49858;SDS011;35756;52.346;13.622;2023-04-24T12:12:12;1999.90;;;999.90;;
49858;SDS011;35756;52.346;13.622;2023-04-24T12:14:44;1999.90;;;805.92;;
49858;SDS011;35756;52.346;13.622;2023-04-24T12:17:13;1999.90;;;841.33;;
49858;SDS011;35756;52.346;13.622;2023-04-24T12:19:44;1999.90;;;999.90;;
49858;SDS011;35756;52.346;13.622;2023-04-24T12:22:10;1573.85;;;772.70;;
49858;SDS011;35756;52.346;13.622;2023-04-24T12:24:54;1832.47;;;856.47;;
49858;SDS011;35756;52.346;13.622;2023-04-24T12:27:21;1441.20;;;489.77;;
49858;SDS011;35756;52.346;13.622;2023-04-24T12:29:56;1874.47;;;791.95;;
49858;SDS011;35756;52.346;13.622;2023-04-24T12:32:22;987.13;;;295.58;;
49858;SDS011;35756;52.346;13.622;2023-04-24T12:34:49;1429.05;;;460.02;;
49858;SDS011;35756;52.346;13.622;2023-04-24T12:37:14;1763.30;;;609.50;;
49858;SDS011;35756;52.346;13.622;2023-04-24T12:39:44;1611.97;;;784.83;;
49858;SDS011;35756;52.346;13.622;2023-04-24T12:42:30;1999.90;;;999.90;;
49858;SDS011;35756;52.346;13.622;2023-04-24T12:44:57;1999.90;;;999.90;;
49858;SDS011;35756;52.346;13.622;2023-04-24T12:47:27;1999.90;;;999.90;;
49858;SDS011;35756;52.346;13.622;2023-04-24T12:49:53;1999.90;;;999.90;;
49858;SDS011;35756;52.346;13.622;2023-04-24T12:52:20;1999.90;;;999.90;;
49858;SDS011;35756;52.346;13.622;2023-04-24T12:54:45;1999.90;;;999.90;;
49858;SDS011;35756;52.346;13.622;2023-04-24T12:57:10;1999.90;;;999.90;;
49858;SDS011;35756;52.346;13.622;2023-04-24T12:59:36;1999.90;;;999.90;;
49858;SDS011;35756;52.346;13.622;2023-04-24T13:02:01;1999.90;;;999.90;;
49858;SDS011;35756;52.346;13.622;2023-04-24T13:04:26;1999.90;;;999.90;;
49858;SDS011;35756;52.346;13.622;2023-04-24T13:06:52;1999.90;;;999.90;;
49858;SDS011;35756;52.346;13.622;2023-04-24T13:09:17;1999.90;;;999.90;;
49858;SDS011;35756;52.346;13.622;2023-04-24T13:11:42;1999.90;;;999.90;;
49858;SDS011;35756;52.346;13.622;2023-04-24T13:14:07;1999.90;;;999.90;;
49858;SDS011;35756;52.346;13.622;2023-04-24T13:16:33;1999.90;;;999.90;;
49858;SDS011;35756;52.346;13.622;2023-04-24T13:18:58;1999.90;;;999.90;;
49858;SDS011;35756;52.346;13.622;2023-04-24T13:21:26;1999.90;;;999.90;;
49858;SDS011;35756;52.346;13.622;2023-04-24T13:23:52;1999.90;;;999.90;;
49858;SDS011;35756;52.346;13.622;2023-04-24T13:26:18;1999.90;;;999.90;;
49858;SDS011;35756;52.346;13.622;2023-04-24T13:28:43;1999.90;;;999.90;;
49858;SDS011;35756;52.346;13.622;2023-04-24T13:31:08;1999.90;;;999.90;;
49858;SDS011;35756;52.346;13.622;2023-04-24T13:33:34;1999.90;;;999.90;;
49858;SDS011;35756;52.346;13.622;2023-04-24T13:35:59;1999.90;;;999.90;;
49858;SDS011;35756;52.346;13.622;2023-04-24T13:38:25;1999.90;;;999.90;;
49858;SDS011;35756;52.346;13.622;2023-04-24T13:40:50;1999.90;;;999.90;;
49858;SDS011;35756;52.346;13.622;2023-04-24T13:43:15;1999.90;;;999.90;;
49858;SDS011;35756;52.346;13.622;2023-04-24T13:45:41;1999.90;;;999.90;;
49858;SDS011;35756;52.346;13.622;2023-04-24T13:48:06;1999.90;;;999.90;;
49858;SDS011;35756;52.346;13.622;2023-04-24T13:50:33;1999.90;;;999.90;;
49858;SDS011;35756;52.346;13.622;2023-04-24T13:52:59;1999.90;;;999.90;;
49858;SDS011;35756;52.346;13.622;2023-04-24T13:55:26;1999.90;;;999.90;;